This is the latest recevied weather packets stored in our database for station/object N3WPH. If no packets are shown the sender has not sent any weather packets the latest 1 day(s).
| Time | Temp. | Humidity | Pressure | Rain* | Wind** | Luminosity | Snow |
|---|---|---|---|---|---|---|---|
| 1778035178 | 18.89° C | 53% | 1008.6 hPa | 0 mm | - | 0 W/m² | - |
| 1778034572 | 17.22° C | 64% | 1008.8 hPa | 0 mm | - | 0 W/m² | - |
| 1778034270 | 17.78° C | 63% | 1008.7 hPa | 0 mm | - | 0 W/m² | - |
| 1778033968 | 17.78° C | 62% | 1008.6 hPa | 0 mm | - | 0 W/m² | - |
| 1778033665 | 18.33° C | 60% | 1008.8 hPa | 0 mm | - | 0 W/m² | - |
| 1778033362 | 18.33° C | 59% | 1008.9 hPa | 0 mm | - | 0 W/m² | - |
| 1778033060 | 18.89° C | 57% | 1008.8 hPa | 0 mm | - | 0 W/m² | - |
| 1778032756 | 19.44° C | 55% | 1008.7 hPa | 0 mm | - | 0 W/m² | - |
| 1778032454 | 20° C | 55% | 1008.8 hPa | 0 mm | - | 0 W/m² | - |
| 1778031848 | 20° C | 52% | 1008.8 hPa | 0 mm | - | 0 W/m² | - |
| 1778031544 | 20° C | 53% | 1008.7 hPa | 0 mm | - | 0 W/m² | - |
| 1778031243 | 20° C | 52% | 1008.6 hPa | 0 mm | - | 0 W/m² | - |
| 1778030938 | 19.44° C | 55% | 1008.5 hPa | 0 mm | - | 0 W/m² | - |
| 1778030635 | 19.44° C | 55% | 1008.6 hPa | 0 mm | - | 0 W/m² | - |
| 1778030332 | 20° C | 55% | 1008.3 hPa | 0 mm | - | 0 W/m² | - |
| 1778030029 | 20° C | 53% | 1008.3 hPa | 0 mm | - | 0 W/m² | - |
| 1778029726 | 20° C | 53% | 1008.1 hPa | 0 mm | - | 0 W/m² | - |
| 1778029121 | 21.11° C | 48% | 1008.1 hPa | 0 mm | - | 0 W/m² | - |
| 1778028818 | 21.67° C | 47% | 1007.7 hPa | 0 mm | - | 0 W/m² | - |
| 1778028513 | 21.67° C | 46% | 1007.9 hPa | 0 mm | - | 0 W/m² | - |
| 1778027907 | 22.22° C | 45% | 1007.8 hPa | 0 mm | - | 0 W/m² | - |
| 1778027604 | 22.22° C | 45% | 1007.7 hPa | 0 mm | - | 0 W/m² | - |
| 1778027300 | 22.22° C | 45% | 1007.8 hPa | 0 mm | - | 0 W/m² | - |
| 1778026997 | 23.33° C | 43% | 1007.9 hPa | 0 mm | - | 0 W/m² | - |
| 1778026390 | 23.33° C | 42% | 1007.6 hPa | 0 mm | - | 0 W/m² | - |
* Rain latest hour (hover to see other rain measurements)
** Current wind speed in m/s (hover to see current wind gust speed)